aviador You're here:

KMJX Decoded Metar

in _UNIDENTIFIED
Report Time2017-11-24 02:56:00
UTC Time2017-11-24 03:44:58
Flight Rules vfr VFR
Wind220° at 03 kt
W.Decomp.*RWY 24: 3.0 kt HW 0.5 kt LCW
W.Rank220° ranks 6
Current wind is below 220° avg. (6.6)
Visibility9999 m
Phenomena:N/A
Clouds:N/A
Expected CloudBase > 800 ft AGL from Temp-Dew spread
CeilingNone
Temp-4°C (ISA -19)
Dew Point-6°C (86% RH)
AAT-7.8°C
QNH1018 hPa
Density Alt-2,359 ft
Elevation82 ft
Report Wrong Elevation
Raw Report
METAR KMJX 240256Z AUTO 22003KT 10SM CLR M04/M06 A3007 RMK AO2 SLP189
60001 T10391061 53006 FZRANO=

Extra information for KMJX:More info

Metar Taf Metar & Taf Last 4 Metars F.Rules Stats Wind Profile Meteogram Temp Stats Metar ALERT Operation Metar Decoded Social comments